sensor_id;sensor_type;location;lat;lon;timestamp;temperature;humidity
1453;DHT22;720;47.738;7.998;2022-09-01T00:02:06;14.30;99.90
1453;DHT22;720;47.738;7.998;2022-09-01T00:04:37;14.30;99.90
1453;DHT22;720;47.738;7.998;2022-09-01T00:07:04;14.30;99.90
1453;DHT22;720;47.738;7.998;2022-09-01T00:09:30;14.30;99.90
1453;DHT22;720;47.738;7.998;2022-09-01T00:11:56;14.70;99.90
1453;DHT22;720;47.738;7.998;2022-09-01T00:14:28;14.30;99.90
1453;DHT22;720;47.738;7.998;2022-09-01T00:19:22;14.40;99.90
1453;DHT22;720;47.738;7.998;2022-09-01T00:21:48;14.20;99.90
1453;DHT22;720;47.738;7.998;2022-09-01T00:24:15;14.10;99.90
1453;DHT22;720;47.738;7.998;2022-09-01T00:26:41;14.00;99.90
1453;DHT22;720;47.738;7.998;2022-09-01T00:31:34;14.30;99.90
1453;DHT22;720;47.738;7.998;2022-09-01T00:34:00;14.30;99.90
1453;DHT22;720;47.738;7.998;2022-09-01T00:36:26;14.30;99.90
1453;DHT22;720;47.738;7.998;2022-09-01T00:38:53;14.40;99.90
1453;DHT22;720;47.738;7.998;2022-09-01T00:41:22;14.30;99.90
1453;DHT22;720;47.738;7.998;2022-09-01T00:43:51;14.20;99.90
1453;DHT22;720;47.738;7.998;2022-09-01T00:46:23;14.40;99.90
1453;DHT22;720;47.738;7.998;2022-09-01T00:49:00;14.40;99.90
1453;DHT22;720;47.738;7.998;2022-09-01T00:51:27;14.30;99.90
1453;DHT22;720;47.738;7.998;2022-09-01T00:53:54;14.30;99.90
1453;DHT22;720;47.738;7.998;2022-09-01T00:56:22;14.30;99.90
1453;DHT22;720;47.738;7.998;2022-09-01T00:58:49;14.30;99.90
1453;DHT22;720;47.738;7.998;2022-09-01T01:01:16;15.10;99.90
1453;DHT22;720;47.738;7.998;2022-09-01T01:03:42;14.20;99.90
1453;DHT22;720;47.738;7.998;2022-09-01T01:06:09;14.30;99.90
1453;DHT22;720;47.738;7.998;2022-09-01T01:08:37;14.20;99.90
1453;DHT22;720;47.738;7.998;2022-09-01T01:11:09;14.20;99.90
1453;DHT22;720;47.738;7.998;2022-09-01T01:13:54;13.90;99.90
1453;DHT22;720;47.738;7.998;2022-09-01T01:16:21;14.20;99.90
1453;DHT22;720;47.738;7.998;2022-09-01T01:18:49;14.20;99.90
1453;DHT22;720;47.738;7.998;2022-09-01T01:21:22;14.20;99.90
1453;DHT22;720;47.738;7.998;2022-09-01T01:24:37;14.10;99.90
1453;DHT22;720;47.738;7.998;2022-09-01T01:27:03;14.10;99.90
1453;DHT22;720;47.738;7.998;2022-09-01T01:29:34;14.10;99.90
1453;DHT22;720;47.738;7.998;2022-09-01T01:32:02;14.10;99.90
1453;DHT22;720;47.738;7.998;2022-09-01T01:34:37;14.10;99.90
1453;DHT22;720;47.738;7.998;2022-09-01T01:37:04;14.00;99.90
1453;DHT22;720;47.738;7.998;2022-09-01T01:39:30;14.00;99.90
1453;DHT22;720;47.738;7.998;2022-09-01T01:41:57;13.90;99.90
1453;DHT22;720;47.738;7.998;2022-09-01T01:44:25;14.10;99.90
1453;DHT22;720;47.738;7.998;2022-09-01T01:46:54;14.10;99.90
1453;DHT22;720;47.738;7.998;2022-09-01T01:49:23;14.00;99.90
1453;DHT22;720;47.738;7.998;2022-09-01T01:51:51;14.00;99.90
1453;DHT22;720;47.738;7.998;2022-09-01T01:54:21;13.90;99.90
1453;DHT22;720;47.738;7.998;2022-09-01T01:56:47;13.90;99.90
1453;DHT22;720;47.738;7.998;2022-09-01T01:59:13;13.90;99.90
1453;DHT22;720;47.738;7.998;2022-09-01T02:01:40;13.90;99.90
1453;DHT22;720;47.738;7.998;2022-09-01T02:04:08;13.80;99.90
1453;DHT22;720;47.738;7.998;2022-09-01T02:06:36;13.90;99.90
1453;DHT22;720;47.738;7.998;2022-09-01T02:09:04;14.00;99.90
1453;DHT22;720;47.738;7.998;2022-09-01T02:11:32;13.90;99.90
1453;DHT22;720;47.738;7.998;2022-09-01T02:13:59;13.90;99.90
1453;DHT22;720;47.738;7.998;2022-09-01T02:16:27;13.90;99.90
1453;DHT22;720;47.738;7.998;2022-09-01T02:18:53;14.00;99.90
1453;DHT22;720;47.738;7.998;2022-09-01T02:21:21;13.90;99.90
1453;DHT22;720;47.738;7.998;2022-09-01T02:23:57;13.90;99.90
1453;DHT22;720;47.738;7.998;2022-09-01T02:26:32;13.80;99.90
1453;DHT22;720;47.738;7.998;2022-09-01T02:29:04;13.70;99.90
1453;DHT22;720;47.738;7.998;2022-09-01T02:31:33;13.70;99.90
1453;DHT22;720;47.738;7.998;2022-09-01T02:34:07;13.70;99.90
1453;DHT22;720;47.738;7.998;2022-09-01T02:36:36;13.80;99.90
1453;DHT22;720;47.738;7.998;2022-09-01T02:39:07;13.80;99.90
1453;DHT22;720;47.738;7.998;2022-09-01T02:43:59;13.80;99.90
1453;DHT22;720;47.738;7.998;2022-09-01T02:46:27;13.80;99.90
1453;DHT22;720;47.738;7.998;2022-09-01T02:51:22;13.60;99.90
1453;DHT22;720;47.738;7.998;2022-09-01T02:53:50;13.70;99.90
1453;DHT22;720;47.738;7.998;2022-09-01T02:56:20;13.80;99.90
1453;DHT22;720;47.738;7.998;2022-09-01T02:58:47;13.70;99.90
1453;DHT22;720;47.738;7.998;2022-09-01T03:01:40;13.60;99.90
1453;DHT22;720;47.738;7.998;2022-09-01T03:04:07;13.50;99.90
1453;DHT22;720;47.738;7.998;2022-09-01T03:06:37;13.60;99.90
1453;DHT22;720;47.738;7.998;2022-09-01T03:09:06;13.40;99.90
1453;DHT22;720;47.738;7.998;2022-09-01T03:11:35;13.50;99.90
1453;DHT22;720;47.738;7.998;2022-09-01T03:14:01;13.40;99.90
1453;DHT22;720;47.738;7.998;2022-09-01T03:16:27;13.40;99.90
1453;DHT22;720;47.738;7.998;2022-09-01T03:18:55;13.40;99.90
1453;DHT22;720;47.738;7.998;2022-09-01T03:21:21;13.50;99.90
1453;DHT22;720;47.738;7.998;2022-09-01T03:23:51;13.60;99.90
1453;DHT22;720;47.738;7.998;2022-09-01T03:26:18;13.70;99.90
1453;DHT22;720;47.738;7.998;2022-09-01T03:28:46;13.50;99.90
1453;DHT22;720;47.738;7.998;2022-09-01T03:31:12;13.40;99.90
1453;DHT22;720;47.738;7.998;2022-09-01T03:33:38;13.30;99.90
1453;DHT22;720;47.738;7.998;2022-09-01T03:36:05;13.40;99.90
1453;DHT22;720;47.738;7.998;2022-09-01T03:38:31;13.60;99.90
1453;DHT22;720;47.738;7.998;2022-09-01T03:41:01;13.30;99.90
1453;DHT22;720;47.738;7.998;2022-09-01T03:43:29;13.30;99.90
1453;DHT22;720;47.738;7.998;2022-09-01T03:45:56;13.20;99.90
1453;DHT22;720;47.738;7.998;2022-09-01T03:48:24;13.30;99.90
1453;DHT22;720;47.738;7.998;2022-09-01T03:50:52;13.10;99.90
1453;DHT22;720;47.738;7.998;2022-09-01T03:53:20;13.20;99.90
1453;DHT22;720;47.738;7.998;2022-09-01T03:55:48;13.20;99.90
1453;DHT22;720;47.738;7.998;2022-09-01T03:58:17;13.20;99.90
1453;DHT22;720;47.738;7.998;2022-09-01T04:00:56;13.30;99.90
1453;DHT22;720;47.738;7.998;2022-09-01T04:03:27;13.10;99.90
1453;DHT22;720;47.738;7.998;2022-09-01T04:05:54;13.20;99.90
1453;DHT22;720;47.738;7.998;2022-09-01T04:08:21;13.10;99.90
1453;DHT22;720;47.738;7.998;2022-09-01T04:10:54;13.30;99.90
1453;DHT22;720;47.738;7.998;2022-09-01T04:13:26;13.10;99.90
1453;DHT22;720;47.738;7.998;2022-09-01T04:15:55;12.70;99.90
1453;DHT22;720;47.738;7.998;2022-09-01T04:18:21;13.00;99.90
1453;DHT22;720;47.738;7.998;2022-09-01T04:20:55;12.80;99.90
1453;DHT22;720;47.738;7.998;2022-09-01T04:23:30;12.90;99.90
1453;DHT22;720;47.738;7.998;2022-09-01T04:26:04;13.00;99.90
1453;DHT22;720;47.738;7.998;2022-09-01T04:28:36;12.80;99.90
1453;DHT22;720;47.738;7.998;2022-09-01T04:31:05;12.90;99.90
1453;DHT22;720;47.738;7.998;2022-09-01T04:33:35;13.00;99.90
1453;DHT22;720;47.738;7.998;2022-09-01T04:36:04;12.80;99.90
1453;DHT22;720;47.738;7.998;2022-09-01T04:38:30;12.80;99.90
1453;DHT22;720;47.738;7.998;2022-09-01T04:41:03;12.80;99.90
1453;DHT22;720;47.738;7.998;2022-09-01T04:43:28;12.90;99.90
1453;DHT22;720;47.738;7.998;2022-09-01T04:45:54;12.90;99.90
1453;DHT22;720;47.738;7.998;2022-09-01T04:48:21;12.80;99.90
1453;DHT22;720;47.738;7.998;2022-09-01T04:50:48;12.70;99.90
1453;DHT22;720;47.738;7.998;2022-09-01T04:53:14;12.70;99.90
1453;DHT22;720;47.738;7.998;2022-09-01T04:55:41;12.90;99.90
1453;DHT22;720;47.738;7.998;2022-09-01T04:58:10;12.80;99.90
1453;DHT22;720;47.738;7.998;2022-09-01T05:00:38;12.90;99.90
1453;DHT22;720;47.738;7.998;2022-09-01T05:03:05;13.20;99.90
1453;DHT22;720;47.738;7.998;2022-09-01T05:05:43;12.90;99.90
1453;DHT22;720;47.738;7.998;2022-09-01T05:08:12;12.40;99.90
1453;DHT22;720;47.738;7.998;2022-09-01T05:10:44;13.00;99.90
1453;DHT22;720;47.738;7.998;2022-09-01T05:13:13;12.60;99.90
1453;DHT22;720;47.738;7.998;2022-09-01T05:15:43;12.80;99.90
1453;DHT22;720;47.738;7.998;2022-09-01T05:18:18;13.00;99.90
1453;DHT22;720;47.738;7.998;2022-09-01T05:20:53;13.10;99.90
1453;DHT22;720;47.738;7.998;2022-09-01T05:23:20;12.60;99.90
1453;DHT22;720;47.738;7.998;2022-09-01T05:25:49;13.00;99.90
1453;DHT22;720;47.738;7.998;2022-09-01T05:28:17;12.70;99.90
1453;DHT22;720;47.738;7.998;2022-09-01T05:30:45;12.90;99.90
1453;DHT22;720;47.738;7.998;2022-09-01T05:33:13;13.20;99.90
1453;DHT22;720;47.738;7.998;2022-09-01T05:35:46;12.70;99.90
1453;DHT22;720;47.738;7.998;2022-09-01T05:38:17;13.10;99.90
1453;DHT22;720;47.738;7.998;2022-09-01T05:40:43;13.20;99.90
1453;DHT22;720;47.738;7.998;2022-09-01T05:43:11;13.10;99.90
1453;DHT22;720;47.738;7.998;2022-09-01T05:45:40;12.90;99.90
1453;DHT22;720;47.738;7.998;2022-09-01T05:48:10;13.20;99.90
1453;DHT22;720;47.738;7.998;2022-09-01T05:50:39;13.20;99.90
1453;DHT22;720;47.738;7.998;2022-09-01T05:53:08;13.40;99.90
1453;DHT22;720;47.738;7.998;2022-09-01T05:55:36;13.70;99.90
1453;DHT22;720;47.738;7.998;2022-09-01T06:00:29;14.10;99.90
1453;DHT22;720;47.738;7.998;2022-09-01T06:02:59;14.10;99.90
1453;DHT22;720;47.738;7.998;2022-09-01T06:07:53;14.50;99.90
1453;DHT22;720;47.738;7.998;2022-09-01T06:10:19;14.70;99.90
1453;DHT22;720;47.738;7.998;2022-09-01T06:12:45;15.10;99.90
1453;DHT22;720;47.738;7.998;2022-09-01T06:17:40;15.60;99.90
1453;DHT22;720;47.738;7.998;2022-09-01T06:20:06;15.50;99.90
1453;DHT22;720;47.738;7.998;2022-09-01T06:22:35;15.40;99.90
1453;DHT22;720;47.738;7.998;2022-09-01T06:25:01;15.70;99.90
1453;DHT22;720;47.738;7.998;2022-09-01T06:27:32;15.90;99.90
1453;DHT22;720;47.738;7.998;2022-09-01T06:29:57;16.10;99.90
1453;DHT22;720;47.738;7.998;2022-09-01T06:32:24;16.40;99.90
1453;DHT22;720;47.738;7.998;2022-09-01T06:34:50;17.00;99.90
1453;DHT22;720;47.738;7.998;2022-09-01T06:37:16;17.10;99.70
1453;DHT22;720;47.738;7.998;2022-09-01T06:39:47;17.50;99.90
1453;DHT22;720;47.738;7.998;2022-09-01T06:42:12;17.20;97.70
1453;DHT22;720;47.738;7.998;2022-09-01T06:44:39;17.80;99.90
1453;DHT22;720;47.738;7.998;2022-09-01T06:47:05;17.40;99.90
1453;DHT22;720;47.738;7.998;2022-09-01T06:49:33;17.20;99.90
1453;DHT22;720;47.738;7.998;2022-09-01T06:52:02;17.50;98.30
1453;DHT22;720;47.738;7.998;2022-09-01T06:54:29;17.60;97.70
1453;DHT22;720;47.738;7.998;2022-09-01T06:56:59;17.60;97.50
1453;DHT22;720;47.738;7.998;2022-09-01T06:59:28;17.70;96.90
1453;DHT22;720;47.738;7.998;2022-09-01T07:02:00;17.10;99.90
1453;DHT22;720;47.738;7.998;2022-09-01T07:04:28;17.00;97.70
1453;DHT22;720;47.738;7.998;2022-09-01T07:06:55;17.10;99.90
1453;DHT22;720;47.738;7.998;2022-09-01T07:11:47;18.00;99.90
1453;DHT22;720;47.738;7.998;2022-09-01T07:14:13;17.80;96.60
1453;DHT22;720;47.738;7.998;2022-09-01T07:16:42;18.30;96.40
1453;DHT22;720;47.738;7.998;2022-09-01T07:19:09;18.30;95.50
1453;DHT22;720;47.738;7.998;2022-09-01T07:21:39;18.30;99.90
1453;DHT22;720;47.738;7.998;2022-09-01T07:24:05;18.60;99.90
1453;DHT22;720;47.738;7.998;2022-09-01T07:26:32;18.50;96.10
1453;DHT22;720;47.738;7.998;2022-09-01T07:29:00;18.80;94.80
1453;DHT22;720;47.738;7.998;2022-09-01T07:31:46;19.40;99.90
1453;DHT22;720;47.738;7.998;2022-09-01T07:34:12;19.40;94.80
1453;DHT22;720;47.738;7.998;2022-09-01T07:36:39;19.40;95.00
1453;DHT22;720;47.738;7.998;2022-09-01T07:39:06;19.20;99.90
1453;DHT22;720;47.738;7.998;2022-09-01T07:41:32;19.30;93.30
1453;DHT22;720;47.738;7.998;2022-09-01T07:43:59;19.30;93.60
1453;DHT22;720;47.738;7.998;2022-09-01T07:46:27;18.70;99.90
1453;DHT22;720;47.738;7.998;2022-09-01T07:48:56;19.00;99.90
1453;DHT22;720;47.738;7.998;2022-09-01T07:51:23;18.80;95.00
1453;DHT22;720;47.738;7.998;2022-09-01T07:53:50;19.30;99.90
1453;DHT22;720;47.738;7.998;2022-09-01T07:56:19;19.10;93.90
1453;DHT22;720;47.738;7.998;2022-09-01T07:58:47;18.70;95.30
1453;DHT22;720;47.738;7.998;2022-09-01T08:01:20;18.40;94.80
1453;DHT22;720;47.738;7.998;2022-09-01T08:03:50;18.50;99.90
1453;DHT22;720;47.738;7.998;2022-09-01T08:06:18;18.60;99.90
1453;DHT22;720;47.738;7.998;2022-09-01T08:08:46;18.60;94.90
1453;DHT22;720;47.738;7.998;2022-09-01T08:11:20;18.40;99.90
1453;DHT22;720;47.738;7.998;2022-09-01T08:13:47;18.40;94.30
1453;DHT22;720;47.738;7.998;2022-09-01T08:16:13;19.00;94.50
1453;DHT22;720;47.738;7.998;2022-09-01T08:18:40;19.70;94.60
1453;DHT22;720;47.738;7.998;2022-09-01T08:21:11;20.50;91.70
1453;DHT22;720;47.738;7.998;2022-09-01T08:23:38;21.30;90.30
1453;DHT22;720;47.738;7.998;2022-09-01T08:26:09;22.00;87.90
1453;DHT22;720;47.738;7.998;2022-09-01T08:28:35;22.90;85.10
1453;DHT22;720;47.738;7.998;2022-09-01T08:31:12;23.80;82.90
1453;DHT22;720;47.738;7.998;2022-09-01T08:33:39;24.20;79.00
1453;DHT22;720;47.738;7.998;2022-09-01T08:36:11;25.20;77.00
1453;DHT22;720;47.738;7.998;2022-09-01T08:38:38;26.40;70.40
1453;DHT22;720;47.738;7.998;2022-09-01T08:41:13;27.30;68.40
1453;DHT22;720;47.738;7.998;2022-09-01T08:46:31;28.50;62.30
1453;DHT22;720;47.738;7.998;2022-09-01T08:49:01;29.50;57.70
1453;DHT22;720;47.738;7.998;2022-09-01T08:54:36;27.50;57.90
1453;DHT22;720;47.738;7.998;2022-09-01T08:57:07;26.00;62.80
1453;DHT22;720;47.738;7.998;2022-09-01T08:59:34;26.00;64.30
1453;DHT22;720;47.738;7.998;2022-09-01T09:13:15;28.50;54.10
1453;DHT22;720;47.738;7.998;2022-09-01T09:16:14;28.70;53.60
1453;DHT22;720;47.738;7.998;2022-09-01T09:18:46;28.60;54.00
1453;DHT22;720;47.738;7.998;2022-09-01T09:21:32;28.00;55.50
1453;DHT22;720;47.738;7.998;2022-09-01T09:26:39;29.50;53.70
1453;DHT22;720;47.738;7.998;2022-09-01T09:29:05;30.40;54.50
1453;DHT22;720;47.738;7.998;2022-09-01T09:31:38;31.10;50.60
1453;DHT22;720;47.738;7.998;2022-09-01T09:34:32;30.60;50.10
1453;DHT22;720;47.738;7.998;2022-09-01T09:37:21;29.80;51.20
1453;DHT22;720;47.738;7.998;2022-09-01T09:42:57;28.30;52.60
1453;DHT22;720;47.738;7.998;2022-09-01T09:45:26;29.50;80.20
1453;DHT22;720;47.738;7.998;2022-09-01T09:47:56;28.70;55.00
1453;DHT22;720;47.738;7.998;2022-09-01T09:50:32;28.70;78.00
1453;DHT22;720;47.738;7.998;2022-09-01T09:53:15;29.00;54.50
1453;DHT22;720;47.738;7.998;2022-09-01T09:58:25;27.60;55.20
1453;DHT22;720;47.738;7.998;2022-09-01T10:01:01;27.50;55.70
1453;DHT22;720;47.738;7.998;2022-09-01T10:03:41;28.30;53.90
1453;DHT22;720;47.738;7.998;2022-09-01T10:06:12;28.40;77.60
1453;DHT22;720;47.738;7.998;2022-09-01T10:08:43;27.60;81.70
1453;DHT22;720;47.738;7.998;2022-09-01T10:11:28;26.00;58.70
1453;DHT22;720;47.738;7.998;2022-09-01T10:13:55;26.00;83.80
1453;DHT22;720;47.738;7.998;2022-09-01T10:16:30;26.60;53.80
1453;DHT22;720;47.738;7.998;2022-09-01T10:18:58;27.40;74.80
1453;DHT22;720;47.738;7.998;2022-09-01T10:21:36;27.50;80.40
1453;DHT22;720;47.738;7.998;2022-09-01T10:26:38;27.90;56.20
1453;DHT22;720;47.738;7.998;2022-09-01T10:29:08;27.90;56.70
1453;DHT22;720;47.738;7.998;2022-09-01T10:31:39;27.90;84.50
1453;DHT22;720;47.738;7.998;2022-09-01T10:34:05;27.70;79.50
1453;DHT22;720;47.738;7.998;2022-09-01T10:36:35;27.40;88.80
1453;DHT22;720;47.738;7.998;2022-09-01T10:39:06;27.40;53.30
1453;DHT22;720;47.738;7.998;2022-09-01T10:41:44;27.30;53.80
1453;DHT22;720;47.738;7.998;2022-09-01T10:46:58;27.40;52.20
1453;DHT22;720;47.738;7.998;2022-09-01T10:51:57;27.40;88.50
1453;DHT22;720;47.738;7.998;2022-09-01T10:59:34;26.70;81.70
1453;DHT22;720;47.738;7.998;2022-09-01T11:07:02;25.80;86.70
1453;DHT22;720;47.738;7.998;2022-09-01T11:09:46;25.60;58.40
1453;DHT22;720;47.738;7.998;2022-09-01T11:14:53;25.50;88.70
1453;DHT22;720;47.738;7.998;2022-09-01T11:17:30;25.00;56.60
1453;DHT22;720;47.738;7.998;2022-09-01T11:20:07;25.00;57.00
1453;DHT22;720;47.738;7.998;2022-09-01T11:23:02;23.90;84.90
1453;DHT22;720;47.738;7.998;2022-09-01T11:38:49;22.70;90.30
1453;DHT22;720;47.738;7.998;2022-09-01T11:46:45;22.80;92.00
1453;DHT22;720;47.738;7.998;2022-09-01T11:49:29;22.30;97.20
1453;DHT22;720;47.738;7.998;2022-09-01T11:51:57;22.00;64.60
1453;DHT22;720;47.738;7.998;2022-09-01T11:54:24;22.10;94.00
1453;DHT22;720;47.738;7.998;2022-09-01T11:56:51;22.20;94.60
1453;DHT22;720;47.738;7.998;2022-09-01T11:59:34;22.10;69.80
1453;DHT22;720;47.738;7.998;2022-09-01T12:02:00;22.20;96.30
1453;DHT22;720;47.738;7.998;2022-09-01T12:04:32;22.00;63.50
1453;DHT22;720;47.738;7.998;2022-09-01T12:07:04;21.80;66.60
1453;DHT22;720;47.738;7.998;2022-09-01T12:09:43;21.80;95.20
1453;DHT22;720;47.738;7.998;2022-09-01T12:12:36;21.60;64.90
1453;DHT22;720;47.738;7.998;2022-09-01T12:15:19;22.10;68.70
1453;DHT22;720;47.738;7.998;2022-09-01T12:17:45;22.20;66.60
1453;DHT22;720;47.738;7.998;2022-09-01T12:20:27;22.40;68.90
1453;DHT22;720;47.738;7.998;2022-09-01T12:22:54;23.20;93.40
1453;DHT22;720;47.738;7.998;2022-09-01T12:25:39;23.30;90.90
1453;DHT22;720;47.738;7.998;2022-09-01T12:30:31;23.70;64.60
1453;DHT22;720;47.738;7.998;2022-09-01T12:33:06;23.80;83.50
1453;DHT22;720;47.738;7.998;2022-09-01T12:35:32;23.40;91.70
1453;DHT22;720;47.738;7.998;2022-09-01T12:40:43;23.80;64.60
1453;DHT22;720;47.738;7.998;2022-09-01T12:43:09;23.60;62.60
1453;DHT22;720;47.738;7.998;2022-09-01T12:45:44;22.80;62.20
1453;DHT22;720;47.738;7.998;2022-09-01T12:48:28;22.80;63.00
1453;DHT22;720;47.738;7.998;2022-09-01T12:50:57;22.20;93.80
1453;DHT22;720;47.738;7.998;2022-09-01T12:53:25;22.30;67.60
1453;DHT22;720;47.738;7.998;2022-09-01T12:56:13;21.90;94.40
1453;DHT22;720;47.738;7.998;2022-09-01T12:58:40;22.00;86.70
1453;DHT22;720;47.738;7.998;2022-09-01T13:01:24;21.80;67.40
1453;DHT22;720;47.738;7.998;2022-09-01T13:06:37;21.70;76.00
1453;DHT22;720;47.738;7.998;2022-09-01T13:09:03;21.70;95.40
1453;DHT22;720;47.738;7.998;2022-09-01T13:11:28;21.70;94.80
1453;DHT22;720;47.738;7.998;2022-09-01T13:16:22;21.70;66.70
1453;DHT22;720;47.738;7.998;2022-09-01T13:18:47;21.40;93.80
1453;DHT22;720;47.738;7.998;2022-09-01T13:21:14;22.00;92.80
1453;DHT22;720;47.738;7.998;2022-09-01T13:23:39;21.90;92.90
1453;DHT22;720;47.738;7.998;2022-09-01T13:26:05;22.00;90.40
1453;DHT22;720;47.738;7.998;2022-09-01T13:31:03;23.20;90.60
1453;DHT22;720;47.738;7.998;2022-09-01T13:33:34;22.70;75.00
1453;DHT22;720;47.738;7.998;2022-09-01T13:36:01;21.60;90.90
1453;DHT22;720;47.738;7.998;2022-09-01T13:38:26;22.50;73.10
1453;DHT22;720;47.738;7.998;2022-09-01T13:43:20;22.80;73.10
1453;DHT22;720;47.738;7.998;2022-09-01T13:45:47;22.60;68.20
1453;DHT22;720;47.738;7.998;2022-09-01T13:48:13;22.80;66.90
1453;DHT22;720;47.738;7.998;2022-09-01T13:50:39;23.00;64.40
1453;DHT22;720;47.738;7.998;2022-09-01T13:53:06;23.20;66.30
1453;DHT22;720;47.738;7.998;2022-09-01T13:55:34;22.70;84.20
1453;DHT22;720;47.738;7.998;2022-09-01T13:57:59;23.20;64.40
1453;DHT22;720;47.738;7.998;2022-09-01T14:00:31;22.90;63.10
1453;DHT22;720;47.738;7.998;2022-09-01T14:03:01;22.40;64.80
1453;DHT22;720;47.738;7.998;2022-09-01T14:05:30;21.70;84.10
1453;DHT22;720;47.738;7.998;2022-09-01T14:07:57;21.80;66.70
1453;DHT22;720;47.738;7.998;2022-09-01T14:10:24;21.60;70.00
1453;DHT22;720;47.738;7.998;2022-09-01T14:12:51;21.60;73.30
1453;DHT22;720;47.738;7.998;2022-09-01T14:15:18;21.60;71.10
1453;DHT22;720;47.738;7.998;2022-09-01T14:17:47;21.50;69.70
1453;DHT22;720;47.738;7.998;2022-09-01T14:20:19;21.50;69.70
1453;DHT22;720;47.738;7.998;2022-09-01T14:22:46;21.10;92.70
1453;DHT22;720;47.738;7.998;2022-09-01T14:25:13;21.00;72.30
1453;DHT22;720;47.738;7.998;2022-09-01T14:27:38;21.20;96.00
1453;DHT22;720;47.738;7.998;2022-09-01T14:30:06;21.10;77.60
1453;DHT22;720;47.738;7.998;2022-09-01T14:32:34;21.10;69.50
1453;DHT22;720;47.738;7.998;2022-09-01T14:35:00;21.20;69.50
1453;DHT22;720;47.738;7.998;2022-09-01T14:37:26;21.30;68.60
1453;DHT22;720;47.738;7.998;2022-09-01T14:39:56;21.40;72.60
1453;DHT22;720;47.738;7.998;2022-09-01T14:42:22;21.60;70.90
1453;DHT22;720;47.738;7.998;2022-09-01T14:44:50;21.70;70.70
1453;DHT22;720;47.738;7.998;2022-09-01T14:47:16;21.10;87.20
1453;DHT22;720;47.738;7.998;2022-09-01T14:49:43;21.40;71.80
1453;DHT22;720;47.738;7.998;2022-09-01T14:52:09;21.40;72.50
1453;DHT22;720;47.738;7.998;2022-09-01T14:54:39;21.10;72.40
1453;DHT22;720;47.738;7.998;2022-09-01T14:57:07;20.60;70.40
1453;DHT22;720;47.738;7.998;2022-09-01T14:59:33;20.60;71.30
1453;DHT22;720;47.738;7.998;2022-09-01T15:01:59;20.70;73.20
1453;DHT22;720;47.738;7.998;2022-09-01T15:04:25;20.70;71.50
1453;DHT22;720;47.738;7.998;2022-09-01T15:09:18;20.80;92.30
1453;DHT22;720;47.738;7.998;2022-09-01T15:11:44;20.20;97.10
1453;DHT22;720;47.738;7.998;2022-09-01T15:14:09;20.40;75.40
1453;DHT22;720;47.738;7.998;2022-09-01T15:16:36;20.40;73.30
1453;DHT22;720;47.738;7.998;2022-09-01T15:19:07;20.50;76.20
1453;DHT22;720;47.738;7.998;2022-09-01T15:21:35;20.60;74.30
1453;DHT22;720;47.738;7.998;2022-09-01T15:24:01;20.60;75.60
1453;DHT22;720;47.738;7.998;2022-09-01T15:26:28;20.70;71.40
1453;DHT22;720;47.738;7.998;2022-09-01T15:28:54;20.30;96.40
1453;DHT22;720;47.738;7.998;2022-09-01T15:31:22;20.10;97.40
1453;DHT22;720;47.738;7.998;2022-09-01T15:33:49;20.20;97.70
1453;DHT22;720;47.738;7.998;2022-09-01T15:36:20;20.00;76.00
1453;DHT22;720;47.738;7.998;2022-09-01T15:38:48;20.10;98.60
1453;DHT22;720;47.738;7.998;2022-09-01T15:41:23;20.30;91.30
1453;DHT22;720;47.738;7.998;2022-09-01T15:43:49;20.30;95.10
1453;DHT22;720;47.738;7.998;2022-09-01T15:46:15;19.90;73.90
1453;DHT22;720;47.738;7.998;2022-09-01T15:48:41;19.60;98.00
1453;DHT22;720;47.738;7.998;2022-09-01T15:53:53;19.60;96.60
1453;DHT22;720;47.738;7.998;2022-09-01T15:56:19;19.90;81.30
1453;DHT22;720;47.738;7.998;2022-09-01T16:01:12;20.10;98.70
1453;DHT22;720;47.738;7.998;2022-09-01T16:03:38;19.70;96.30
1453;DHT22;720;47.738;7.998;2022-09-01T16:06:04;19.60;74.50
1453;DHT22;720;47.738;7.998;2022-09-01T16:08:31;19.60;97.30
1453;DHT22;720;47.738;7.998;2022-09-01T16:18:47;19.50;99.90
1453;DHT22;720;47.738;7.998;2022-09-01T16:21:25;19.30;98.70
1453;DHT22;720;47.738;7.998;2022-09-01T16:23:53;19.20;99.90
1453;DHT22;720;47.738;7.998;2022-09-01T16:26:20;19.40;99.90
1453;DHT22;720;47.738;7.998;2022-09-01T16:28:52;19.00;99.90
1453;DHT22;720;47.738;7.998;2022-09-01T16:31:23;18.70;83.10
1453;DHT22;720;47.738;7.998;2022-09-01T16:33:52;18.80;98.30
1453;DHT22;720;47.738;7.998;2022-09-01T16:39:16;19.10;80.20
1453;DHT22;720;47.738;7.998;2022-09-01T16:42:00;19.50;99.30
1453;DHT22;720;47.738;7.998;2022-09-01T16:56:01;19.20;97.30
1453;DHT22;720;47.738;7.998;2022-09-01T17:14:52;19.20;99.90
1453;DHT22;720;47.738;7.998;2022-09-01T17:20:24;18.90;81.50
1453;DHT22;720;47.738;7.998;2022-09-01T17:22:51;18.90;99.90
1453;DHT22;720;47.738;7.998;2022-09-01T17:25:31;18.90;86.60
1453;DHT22;720;47.738;7.998;2022-09-01T17:28:01;18.80;99.90
1453;DHT22;720;47.738;7.998;2022-09-01T17:30:29;18.50;99.90
1453;DHT22;720;47.738;7.998;2022-09-01T17:33:17;18.70;82.90
1453;DHT22;720;47.738;7.998;2022-09-01T17:44:28;18.70;86.40
1453;DHT22;720;47.738;7.998;2022-09-01T17:47:19;18.30;99.90
1453;DHT22;720;47.738;7.998;2022-09-01T17:50:13;18.60;99.90
1453;DHT22;720;47.738;7.998;2022-09-01T17:55:56;18.20;99.90
1453;DHT22;720;47.738;7.998;2022-09-01T17:58:46;18.30;90.00
1453;DHT22;720;47.738;7.998;2022-09-01T18:04:44;18.00;92.10
1453;DHT22;720;47.738;7.998;2022-09-01T18:09:44;17.80;94.50
1453;DHT22;720;47.738;7.998;2022-09-01T18:12:15;17.50;95.70
1453;DHT22;720;47.738;7.998;2022-09-01T18:17:39;17.50;99.90
1453;DHT22;720;47.738;7.998;2022-09-01T18:20:28;17.40;94.70
1453;DHT22;720;47.738;7.998;2022-09-01T18:23:05;17.20;99.90
1453;DHT22;720;47.738;7.998;2022-09-01T18:25:56;16.90;99.90
1453;DHT22;720;47.738;7.998;2022-09-01T18:28:23;16.90;96.50
1453;DHT22;720;47.738;7.998;2022-09-01T18:48:08;16.80;97.20
1453;DHT22;720;47.738;7.998;2022-09-01T18:53:41;16.80;97.60
1453;DHT22;720;47.738;7.998;2022-09-01T18:59:07;16.50;97.90
1453;DHT22;720;47.738;7.998;2022-09-01T19:01:47;16.40;99.90
1453;DHT22;720;47.738;7.998;2022-09-01T19:09:54;16.40;99.90
1453;DHT22;720;47.738;7.998;2022-09-01T19:15:18;16.40;99.90
1453;DHT22;720;47.738;7.998;2022-09-01T19:18:21;16.60;99.90
1453;DHT22;720;47.738;7.998;2022-09-01T19:21:05;16.60;99.90
1453;DHT22;720;47.738;7.998;2022-09-01T19:23:40;16.20;99.90
1453;DHT22;720;47.738;7.998;2022-09-01T19:26:15;16.10;99.50
1453;DHT22;720;47.738;7.998;2022-09-01T19:28:48;16.00;99.90
1453;DHT22;720;47.738;7.998;2022-09-01T19:31:31;16.20;99.90
1453;DHT22;720;47.738;7.998;2022-09-01T19:34:11;16.00;99.90
1453;DHT22;720;47.738;7.998;2022-09-01T19:39:11;15.90;99.90
1453;DHT22;720;47.738;7.998;2022-09-01T19:47:20;15.80;99.90
1453;DHT22;720;47.738;7.998;2022-09-01T19:50:10;15.60;99.90
1453;DHT22;720;47.738;7.998;2022-09-01T19:55:18;15.80;99.90
1453;DHT22;720;47.738;7.998;2022-09-01T19:57:54;15.90;99.90
1453;DHT22;720;47.738;7.998;2022-09-01T20:00:31;15.50;99.90
1453;DHT22;720;47.738;7.998;2022-09-01T20:03:07;15.50;99.90
1453;DHT22;720;47.738;7.998;2022-09-01T20:05:44;15.70;99.90
1453;DHT22;720;47.738;7.998;2022-09-01T20:08:21;15.70;99.90
1453;DHT22;720;47.738;7.998;2022-09-01T20:18:31;15.80;99.90